createdAt,value
2018-07-28T00:00:32.465Z,1008.76
2018-07-28T00:01:53.510Z,1008.78
2018-07-28T00:02:32.520Z,1008.75
2018-07-28T00:03:32.546Z,1008.76
2018-07-28T00:04:32.573Z,1008.70
2018-07-28T00:05:32.597Z,1008.69
2018-07-28T00:06:32.622Z,1008.68
2018-07-28T00:07:53.669Z,1008.66
2018-07-28T00:08:32.677Z,1008.65
2018-07-28T00:09:32.704Z,1008.58
2018-07-28T00:10:32.729Z,1008.55
2018-07-28T00:11:32.756Z,1008.50
2018-07-28T00:12:32.781Z,1008.49
2018-07-28T00:13:53.822Z,1008.46
2018-07-28T00:14:32.832Z,1008.48
2018-07-28T00:15:32.857Z,1008.49
2018-07-28T00:16:32.885Z,1008.47
2018-07-28T00:17:32.909Z,1008.48
2018-07-28T00:18:32.936Z,1008.47
2018-07-28T00:19:53.981Z,1008.43
2018-07-28T00:20:32.990Z,1008.45
2018-07-28T00:21:33.015Z,1008.41
2018-07-28T00:22:33.042Z,1008.40
2018-07-28T00:23:33.066Z,1008.44
2018-07-28T00:24:33.090Z,1008.36
2018-07-28T00:25:54.132Z,1008.37
2018-07-28T00:26:33.142Z,1008.32
2018-07-28T00:27:33.170Z,1008.28
2018-07-28T00:28:33.193Z,1008.29
2018-07-28T00:29:33.223Z,1008.23
2018-07-28T00:30:33.250Z,1008.25
2018-07-28T00:31:54.290Z,1008.25
2018-07-28T00:32:33.298Z,1008.23
2018-07-28T00:33:33.323Z,1008.20
2018-07-28T00:34:33.350Z,1008.19
2018-07-28T00:35:33.376Z,1008.20
2018-07-28T00:36:33.400Z,1008.13
2018-07-28T00:37:54.443Z,1008.15
2018-07-28T00:38:33.453Z,1008.10
2018-07-28T00:39:33.479Z,1008.05
2018-07-28T00:40:33.509Z,1008.06
2018-07-28T00:41:33.535Z,1008.06
2018-07-28T00:42:33.559Z,1008.05
2018-07-28T00:43:54.603Z,1008.05
2018-07-28T00:44:33.609Z,1008.03
2018-07-28T00:45:33.633Z,1007.97
2018-07-28T00:46:33.668Z,1007.97
2018-07-28T00:47:33.686Z,1008.00
2018-07-28T00:48:33.712Z,1007.98
2018-07-28T00:49:54.757Z,1007.96
2018-07-28T00:50:33.768Z,1007.99
2018-07-28T00:51:33.793Z,1007.96
2018-07-28T00:52:33.813Z,1007.95
2018-07-28T00:53:33.842Z,1007.97
2018-07-28T00:54:33.868Z,1007.93
2018-07-28T00:55:54.911Z,1007.91
2018-07-28T00:56:33.920Z,1007.95
2018-07-28T00:57:33.949Z,1007.92
2018-07-28T00:58:33.974Z,1007.92
2018-07-28T00:59:34.000Z,1007.88
2018-07-28T01:00:34.023Z,1007.89
2018-07-28T01:01:55.064Z,1007.91
2018-07-28T01:02:34.078Z,1007.90
2018-07-28T01:03:34.101Z,1007.91
2018-07-28T01:04:34.127Z,1007.89
2018-07-28T01:05:34.152Z,1007.86
2018-07-28T01:06:34.180Z,1007.85
2018-07-28T01:07:55.228Z,1007.85
2018-07-28T01:08:34.234Z,1007.82
2018-07-28T01:09:34.258Z,1007.85
2018-07-28T01:10:34.286Z,1007.86
2018-07-28T01:11:34.311Z,1007.79
2018-07-28T01:12:34.334Z,1007.77
2018-07-28T01:13:55.375Z,1007.77
2018-07-28T01:14:34.384Z,1007.76
2018-07-28T01:15:34.411Z,1007.75
2018-07-28T01:16:34.439Z,1007.79
2018-07-28T01:17:34.469Z,1007.78
2018-07-28T01:18:34.490Z,1007.79
2018-07-28T01:19:55.532Z,1007.77
2018-07-28T01:20:34.539Z,1007.71
2018-07-28T01:21:34.574Z,1007.71
2018-07-28T01:22:34.597Z,1007.73
2018-07-28T01:23:34.618Z,1007.70
2018-07-28T01:24:34.646Z,1007.69
2018-07-28T01:25:55.693Z,1007.71
2018-07-28T01:26:34.693Z,1007.72
2018-07-28T01:27:34.722Z,1007.69
2018-07-28T01:28:34.749Z,1007.69
2018-07-28T01:29:34.776Z,1007.68
2018-07-28T01:30:34.805Z,1007.68
2018-07-28T01:31:55.850Z,1007.68
2018-07-28T01:32:34.854Z,1007.67
2018-07-28T01:33:34.880Z,1007.64
2018-07-28T01:34:34.902Z,1007.63
2018-07-28T01:35:34.929Z,1007.61
2018-07-28T01:36:34.956Z,1007.62
2018-07-28T01:37:55.999Z,1007.54
2018-07-28T01:38:35.009Z,1007.57
2018-07-28T01:39:35.038Z,1007.60
2018-07-28T01:40:35.060Z,1007.52
2018-07-28T01:41:35.085Z,1007.56
2018-07-28T01:42:35.111Z,1007.56
2018-07-28T01:43:56.156Z,1007.58
2018-07-28T01:44:35.160Z,1007.58
2018-07-28T01:45:35.187Z,1007.57
2018-07-28T01:46:35.212Z,1007.56
2018-07-28T01:47:35.241Z,1007.54
2018-07-28T01:48:35.269Z,1007.53
2018-07-28T01:49:56.311Z,1007.55
2018-07-28T01:50:35.318Z,1007.56
2018-07-28T01:51:35.347Z,1007.57
2018-07-28T01:52:35.366Z,1007.53
2018-07-28T01:53:35.393Z,1007.53
2018-07-28T01:54:35.420Z,1007.45
2018-07-28T01:55:56.463Z,1007.47
2018-07-28T01:56:35.470Z,1007.46
2018-07-28T01:57:35.497Z,1007.46
2018-07-28T01:58:35.527Z,1007.45
2018-07-28T01:59:35.551Z,1007.43
2018-07-28T02:00:35.576Z,1007.47
2018-07-28T02:01:56.624Z,1007.41
2018-07-28T02:02:35.631Z,1007.42
2018-07-28T02:03:35.655Z,1007.43
2018-07-28T02:04:35.677Z,1007.43
2018-07-28T02:05:35.704Z,1007.38
2018-07-28T02:06:35.729Z,1007.39
2018-07-28T02:07:56.773Z,1007.33
2018-07-28T02:08:35.781Z,1007.30
2018-07-28T02:09:35.808Z,1007.24
2018-07-28T02:10:35.835Z,1007.26
2018-07-28T02:11:35.861Z,1007.25
2018-07-28T02:12:35.885Z,1007.23
2018-07-28T02:13:56.940Z,1007.23
2018-07-28T02:14:35.938Z,1007.21
2018-07-28T02:15:35.964Z,1007.22
2018-07-28T02:16:35.987Z,1007.20
2018-07-28T02:17:36.013Z,1007.18
2018-07-28T02:18:36.039Z,1007.17
2018-07-28T02:19:57.085Z,1007.16
2018-07-28T02:20:36.095Z,1007.15
2018-07-28T02:21:36.119Z,1007.13
2018-07-28T02:22:36.145Z,1007.12
2018-07-28T02:23:36.172Z,1007.14
2018-07-28T02:24:36.195Z,1007.06
2018-07-28T02:25:57.241Z,1007.02
2018-07-28T02:26:36.247Z,1007.00
2018-07-28T02:27:36.271Z,1007.02
2018-07-28T02:28:36.297Z,1007.05
2018-07-28T02:29:36.322Z,1007.02
2018-07-28T02:30:36.348Z,1007.00
2018-07-28T02:31:57.392Z,1007.03
2018-07-28T02:32:36.403Z,1006.99
2018-07-28T02:33:36.428Z,1007.01
2018-07-28T02:34:36.458Z,1007.01
2018-07-28T02:35:36.483Z,1007.00
2018-07-28T02:36:36.504Z,1006.94
2018-07-28T02:37:57.548Z,1006.92
2018-07-28T02:38:36.555Z,1006.94
2018-07-28T02:39:36.581Z,1006.94
2018-07-28T02:40:36.616Z,1006.93
2018-07-28T02:41:36.635Z,1006.93
2018-07-28T02:42:36.663Z,1006.88
2018-07-28T02:43:57.703Z,1006.89
2018-07-28T02:44:36.711Z,1006.85
2018-07-28T02:45:36.741Z,1006.87
2018-07-28T02:46:36.763Z,1006.84
2018-07-28T02:47:36.789Z,1006.84
2018-07-28T02:48:36.812Z,1006.82
2018-07-28T02:49:57.856Z,1006.83
2018-07-28T02:50:36.866Z,1006.81
2018-07-28T02:51:36.895Z,1006.80
2018-07-28T02:52:36.919Z,1006.81
2018-07-28T02:53:36.944Z,1006.76
2018-07-28T02:54:36.969Z,1006.75
2018-07-28T02:55:58.015Z,1006.73
2018-07-28T02:56:37.019Z,1006.76
2018-07-28T02:57:37.043Z,1006.72
2018-07-28T02:58:37.074Z,1006.75
2018-07-28T02:59:37.097Z,1006.76
2018-07-28T03:00:37.123Z,1006.78
2018-07-28T03:01:58.168Z,1006.76
2018-07-28T03:02:37.177Z,1006.75
2018-07-28T03:03:37.201Z,1006.74
2018-07-28T03:04:37.229Z,1006.71
2018-07-28T03:05:37.252Z,1006.73
2018-07-28T03:06:37.278Z,1006.70
2018-07-28T03:07:58.320Z,1006.70
2018-07-28T03:08:37.329Z,1006.65
2018-07-28T03:09:37.355Z,1006.64
2018-07-28T03:10:37.381Z,1006.60
2018-07-28T03:11:37.408Z,1006.61
2018-07-28T03:12:37.430Z,1006.62
2018-07-28T03:13:58.475Z,1006.69
2018-07-28T03:14:37.484Z,1006.64
2018-07-28T03:15:37.509Z,1006.62
2018-07-28T03:16:37.532Z,1006.60
2018-07-28T03:17:37.559Z,1006.56
2018-07-28T03:18:37.586Z,1006.57
2018-07-28T03:19:58.628Z,1006.57
2018-07-28T03:20:37.637Z,1006.58
2018-07-28T03:21:37.663Z,1006.59
2018-07-28T03:22:37.690Z,1006.58
2018-07-28T03:23:37.715Z,1006.61
2018-07-28T03:24:37.740Z,1006.59
2018-07-28T03:25:58.784Z,1006.59
2018-07-28T03:26:37.792Z,1006.59
2018-07-28T03:27:37.816Z,1006.57
2018-07-28T03:28:37.843Z,1006.58
2018-07-28T03:29:37.871Z,1006.52
2018-07-28T03:30:37.897Z,1006.56
2018-07-28T03:31:58.939Z,1006.54
2018-07-28T03:32:37.946Z,1006.51
2018-07-28T03:33:37.972Z,1006.51
2018-07-28T03:34:38.000Z,1006.52
2018-07-28T03:35:38.025Z,1006.49
2018-07-28T03:36:38.048Z,1006.44
2018-07-28T03:37:59.090Z,1006.40
2018-07-28T03:38:38.101Z,1006.36
2018-07-28T03:39:38.128Z,1006.33
2018-07-28T03:40:38.153Z,1006.35
2018-07-28T03:41:38.178Z,1006.34
2018-07-28T03:42:38.206Z,1006.34
2018-07-28T03:43:59.247Z,1006.31
2018-07-28T03:44:38.255Z,1006.32
2018-07-28T03:45:38.282Z,1006.31
2018-07-28T03:46:38.305Z,1006.24
2018-07-28T03:47:38.331Z,1006.26
2018-07-28T03:48:38.355Z,1006.28
2018-07-28T03:49:59.401Z,1006.26
2018-07-28T03:50:38.409Z,1006.25
2018-07-28T03:51:38.434Z,1006.21
2018-07-28T03:52:38.460Z,1006.25
2018-07-28T03:53:38.492Z,1006.25
2018-07-28T03:54:38.517Z,1006.23
2018-07-28T03:55:59.558Z,1006.20
2018-07-28T03:56:38.629Z,1006.21
2018-07-28T03:57:38.588Z,1006.21
2018-07-28T03:58:38.615Z,1006.26
2018-07-28T03:59:38.642Z,1006.28
2018-07-28T04:00:38.666Z,1006.21
2018-07-28T04:01:59.709Z,1006.22
2018-07-28T04:02:38.719Z,1006.21
2018-07-28T04:03:38.746Z,1006.17
2018-07-28T04:04:38.767Z,1006.18
2018-07-28T04:05:38.796Z,1006.18
2018-07-28T04:06:38.829Z,1006.17
2018-07-28T04:07:59.865Z,1006.12
2018-07-28T04:08:38.870Z,1006.12
2018-07-28T04:09:38.896Z,1006.11
2018-07-28T04:10:38.924Z,1006.11
2018-07-28T04:11:38.956Z,1006.12
2018-07-28T04:12:38.979Z,1006.11
2018-07-28T04:14:00.020Z,1006.10
2018-07-28T04:14:39.033Z,1006.12
2018-07-28T04:15:39.055Z,1006.10
2018-07-28T04:16:39.078Z,1006.09
2018-07-28T04:17:39.111Z,1006.06
2018-07-28T04:18:39.131Z,1006.01
2018-07-28T04:20:00.178Z,1005.94
2018-07-28T04:20:39.190Z,1006.00
2018-07-28T04:21:39.210Z,1005.94
2018-07-28T04:22:39.237Z,1005.91
2018-07-28T04:23:39.268Z,1005.85
2018-07-28T04:24:39.293Z,1005.93
2018-07-28T04:26:00.337Z,1005.92
2018-07-28T04:26:39.346Z,1005.90
2018-07-28T04:27:39.376Z,1005.89
2018-07-28T04:28:39.440Z,1005.91
2018-07-28T04:29:39.425Z,1005.91
2018-07-28T04:30:39.453Z,1005.89
2018-07-28T04:32:00.496Z,1005.93
2018-07-28T04:32:39.511Z,1005.91
2018-07-28T04:33:39.535Z,1005.91
2018-07-28T04:34:39.575Z,1005.93
2018-07-28T04:35:39.594Z,1005.91
2018-07-28T04:36:39.617Z,1005.88
2018-07-28T04:38:00.668Z,1005.88
2018-07-28T04:38:39.672Z,1005.84
2018-07-28T04:39:39.699Z,1005.86
2018-07-28T04:40:39.726Z,1005.85
2018-07-28T04:41:39.753Z,1005.83
2018-07-28T04:42:39.781Z,1005.85
2018-07-28T04:44:00.870Z,1005.80
2018-07-28T04:44:39.841Z,1005.79
2018-07-28T04:45:39.867Z,1005.77
2018-07-28T04:46:39.896Z,1005.79
2018-07-28T04:47:39.927Z,1005.78
2018-07-28T04:48:39.952Z,1005.79
2018-07-28T04:50:00.999Z,1005.82
2018-07-28T04:50:40.007Z,1005.78
2018-07-28T04:51:40.035Z,1005.81
2018-07-28T04:52:40.069Z,1005.82
2018-07-28T04:53:40.092Z,1005.76
2018-07-28T04:54:40.122Z,1005.74
2018-07-28T04:56:01.168Z,1005.76
2018-07-28T04:56:40.180Z,1005.76
2018-07-28T04:57:40.209Z,1005.75
2018-07-28T04:58:40.242Z,1005.75
2018-07-28T04:59:40.268Z,1005.73
2018-07-28T05:00:40.296Z,1005.72
2018-07-28T05:02:01.343Z,1005.79
2018-07-28T05:02:40.357Z,1005.76
2018-07-28T05:03:40.385Z,1005.76
2018-07-28T05:04:40.413Z,1005.75
2018-07-28T05:05:40.442Z,1005.79
2018-07-28T05:06:40.473Z,1005.71
2018-07-28T05:08:01.520Z,1005.66
2018-07-28T05:08:40.530Z,1005.66
2018-07-28T05:09:40.559Z,1005.68
2018-07-28T05:10:40.589Z,1005.66
2018-07-28T05:11:40.619Z,1005.65
2018-07-28T05:12:40.651Z,1005.66
2018-07-28T05:14:01.701Z,1005.64
2018-07-28T05:14:40.711Z,1005.63
2018-07-28T05:15:40.741Z,1005.64
2018-07-28T05:16:40.771Z,1005.63
2018-07-28T05:17:40.799Z,1005.66
2018-07-28T05:18:40.834Z,1005.63
2018-07-28T05:20:02.025Z,1005.66
2018-07-28T05:20:40.892Z,1005.72
2018-07-28T05:21:40.922Z,1005.66
2018-07-28T05:22:40.953Z,1005.73
2018-07-28T05:23:41.001Z,1005.71
2018-07-28T05:24:41.013Z,1005.68
2018-07-28T05:26:02.064Z,1005.70
2018-07-28T05:26:41.075Z,1005.70
2018-07-28T05:27:41.104Z,1005.66
2018-07-28T05:28:41.133Z,1005.66
2018-07-28T05:29:41.201Z,1005.63
2018-07-28T05:30:41.195Z,1005.65
2018-07-28T05:32:02.245Z,1005.64
2018-07-28T05:32:41.257Z,1005.62
2018-07-28T05:33:41.286Z,1005.65
2018-07-28T05:34:41.317Z,1005.62
2018-07-28T05:35:41.348Z,1005.61
2018-07-28T05:36:41.374Z,1005.61
2018-07-28T05:38:02.422Z,1005.55
2018-07-28T05:38:41.435Z,1005.55
2018-07-28T05:39:41.465Z,1005.50
2018-07-28T05:40:41.495Z,1005.46
2018-07-28T05:41:41.528Z,1005.44
2018-07-28T05:42:41.557Z,1005.37
2018-07-28T05:44:02.606Z,1005.37
2018-07-28T05:44:41.617Z,1005.31
2018-07-28T05:45:41.648Z,1005.30
2018-07-28T05:46:41.676Z,1005.27
2018-07-28T05:47:41.704Z,1005.20
2018-07-28T05:48:41.737Z,1005.26
2018-07-28T05:50:02.844Z,1005.20
2018-07-28T05:50:41.795Z,1005.13
2018-07-28T05:51:41.826Z,1005.12
2018-07-28T05:52:41.856Z,1005.13
2018-07-28T05:53:41.886Z,1005.11
2018-07-28T05:54:41.918Z,1005.09
2018-07-28T05:56:02.967Z,1005.05
2018-07-28T05:56:41.976Z,1005.09
2018-07-28T05:57:42.003Z,1005.08
2018-07-28T05:58:42.034Z,1005.07
2018-07-28T05:59:42.063Z,1005.02
2018-07-28T06:00:42.091Z,1005.03
2018-07-28T06:02:03.142Z,1005.01
2018-07-28T06:02:42.170Z,1005.09
2018-07-28T06:03:42.184Z,1005.08
2018-07-28T06:04:42.219Z,1005.05
2018-07-28T06:05:42.243Z,1005.14
2018-07-28T06:06:42.273Z,1005.11
2018-07-28T06:08:03.319Z,1005.09
2018-07-28T06:08:42.331Z,1005.03
2018-07-28T06:09:42.360Z,1005.07
2018-07-28T06:10:42.396Z,1005.04
2018-07-28T06:11:42.422Z,1005.04
2018-07-28T06:12:42.454Z,1005.06
2018-07-28T06:14:03.524Z,1005.06
2018-07-28T06:14:42.515Z,1005.07
2018-07-28T06:15:42.546Z,1005.04
2018-07-28T06:16:42.579Z,1005.05
2018-07-28T06:17:42.602Z,1005.05
2018-07-28T06:18:42.635Z,1005.05
2018-07-28T06:20:03.686Z,1005.05
2018-07-28T06:20:42.696Z,1005.09
2018-07-28T06:21:42.727Z,1005.07
2018-07-28T06:22:42.760Z,1005.07
2018-07-28T06:23:42.788Z,1005.10
2018-07-28T06:24:42.819Z,1005.08
2018-07-28T06:26:03.937Z,1005.08
2018-07-28T06:26:42.883Z,1005.06
2018-07-28T06:27:42.916Z,1005.11
2018-07-28T06:28:42.948Z,1005.09
2018-07-28T06:29:42.980Z,1005.03
2018-07-28T06:30:43.012Z,1005.03
2018-07-28T06:32:04.062Z,1004.96
2018-07-28T06:32:43.072Z,1004.95
2018-07-28T06:33:43.105Z,1004.91
2018-07-28T06:34:43.139Z,1004.88
2018-07-28T06:35:43.169Z,1004.91
2018-07-28T06:36:43.196Z,1004.93
2018-07-28T06:38:04.249Z,1004.93
2018-07-28T06:38:43.259Z,1004.97
2018-07-28T06:39:43.293Z,1004.98
2018-07-28T06:40:43.323Z,1004.94
2018-07-28T06:41:43.355Z,1004.94
2018-07-28T06:42:43.391Z,1004.91
2018-07-28T06:44:04.436Z,1004.93
2018-07-28T06:44:43.448Z,1004.96
2018-07-28T06:45:43.480Z,1004.97
2018-07-28T06:46:43.508Z,1004.97
2018-07-28T06:47:43.543Z,1004.94
2018-07-28T06:48:43.569Z,1004.97
2018-07-28T06:50:04.619Z,1005.00
2018-07-28T06:50:43.633Z,1005.04
2018-07-28T06:51:43.666Z,1005.00
2018-07-28T06:52:43.693Z,1004.97
2018-07-28T06:53:43.757Z,1004.95
2018-07-28T06:54:43.754Z,1005.00
2018-07-28T06:56:04.815Z,1004.97
2018-07-28T06:56:43.812Z,1004.98
2018-07-28T06:57:43.843Z,1004.94
2018-07-28T06:58:43.876Z,1004.98
2018-07-28T06:59:43.905Z,1004.97
2018-07-28T07:00:43.933Z,1005.02
2018-07-28T07:02:04.984Z,1005.00
2018-07-28T07:02:43.995Z,1004.99
2018-07-28T07:03:44.028Z,1005.00
2018-07-28T07:04:44.063Z,1004.99
2018-07-28T07:05:44.087Z,1004.95
2018-07-28T07:06:44.117Z,1004.94
2018-07-28T07:08:05.174Z,1004.99
2018-07-28T07:08:44.174Z,1005.00
2018-07-28T07:09:44.204Z,1005.01
2018-07-28T07:10:44.236Z,1005.03
2018-07-28T07:11:44.328Z,1005.04
2018-07-28T07:12:44.298Z,1005.00
2018-07-28T07:14:05.342Z,1005.04
2018-07-28T07:14:44.355Z,1005.05
2018-07-28T07:15:44.383Z,1005.01
2018-07-28T07:16:44.412Z,1005.02
2018-07-28T07:17:44.442Z,1005.03
2018-07-28T07:18:44.475Z,1005.04
2018-07-28T07:20:05.522Z,1005.04
2018-07-28T07:20:44.533Z,1005.08
2018-07-28T07:21:44.565Z,1005.09
2018-07-28T07:22:44.593Z,1005.12
2018-07-28T07:23:44.620Z,1005.06
2018-07-28T07:24:44.693Z,1005.11
2018-07-28T07:26:05.698Z,1005.06
2018-07-28T07:26:44.710Z,1005.05
2018-07-28T07:27:44.743Z,1005.08
2018-07-28T07:28:44.769Z,1005.07
2018-07-28T07:29:44.803Z,1005.08
2018-07-28T07:30:44.829Z,1005.09
2018-07-28T07:32:05.888Z,1005.12
2018-07-28T07:32:44.886Z,1005.14
2018-07-28T07:33:44.918Z,1005.14
2018-07-28T07:34:44.952Z,1005.13
2018-07-28T07:35:44.972Z,1005.07
2018-07-28T07:36:45.002Z,1005.08
2018-07-28T07:38:06.049Z,1005.05
2018-07-28T07:38:45.061Z,1005.08
2018-07-28T07:39:45.097Z,1005.06
2018-07-28T07:40:45.142Z,1005.02
2018-07-28T07:41:45.216Z,1005.02
2018-07-28T07:42:45.193Z,1005.02
2018-07-28T07:44:06.223Z,1005.07
2018-07-28T07:44:45.235Z,1005.05
2018-07-28T07:45:45.262Z,1005.07
2018-07-28T07:46:45.290Z,1005.05
2018-07-28T07:47:45.320Z,1005.05
2018-07-28T07:48:45.350Z,1005.01
2018-07-28T07:50:06.395Z,1005.00
2018-07-28T07:50:45.407Z,1004.97
2018-07-28T07:51:45.437Z,1004.90
2018-07-28T07:52:45.465Z,1004.91
2018-07-28T07:53:45.511Z,1004.85
2018-07-28T07:54:45.523Z,1004.88
2018-07-28T07:56:06.573Z,1004.79
2018-07-28T07:56:45.578Z,1004.79
2018-07-28T07:57:45.609Z,1004.79
2018-07-28T07:58:45.638Z,1004.77
2018-07-28T07:59:45.666Z,1004.74
2018-07-28T08:00:45.696Z,1004.72
2018-07-28T08:02:06.742Z,1004.73
2018-07-28T08:02:45.754Z,1004.74
2018-07-28T08:03:45.783Z,1004.69
2018-07-28T08:04:45.819Z,1004.66
2018-07-28T08:05:45.837Z,1004.65
2018-07-28T08:06:45.867Z,1004.62
2018-07-28T08:08:06.911Z,1004.63
2018-07-28T08:08:45.920Z,1004.64
2018-07-28T08:09:45.950Z,1004.63
2018-07-28T08:10:45.979Z,1004.73
2018-07-28T08:11:46.011Z,1004.69
2018-07-28T08:12:46.061Z,1004.67
2018-07-28T08:14:07.094Z,1004.69
2018-07-28T08:14:46.094Z,1004.67
2018-07-28T08:15:46.121Z,1004.65
2018-07-28T08:16:46.150Z,1004.69
2018-07-28T08:17:46.181Z,1004.67
2018-07-28T08:18:46.205Z,1004.64
2018-07-28T08:20:07.253Z,1004.65
2018-07-28T08:20:46.262Z,1004.67
2018-07-28T08:21:46.293Z,1004.70
2018-07-28T08:22:46.319Z,1004.71
2018-07-28T08:23:46.351Z,1004.79
2018-07-28T08:24:46.378Z,1004.75
2018-07-28T08:26:07.427Z,1004.73
2018-07-28T08:26:46.484Z,1004.79
2018-07-28T08:27:46.467Z,1004.67
2018-07-28T08:28:46.493Z,1004.70
2018-07-28T08:29:46.523Z,1004.67
2018-07-28T08:30:46.547Z,1004.68
2018-07-28T08:32:07.599Z,1004.69
2018-07-28T08:32:46.606Z,1004.69
2018-07-28T08:33:46.635Z,1004.67
2018-07-28T08:34:46.667Z,1004.64
2018-07-28T08:35:46.695Z,1004.64
2018-07-28T08:36:46.725Z,1004.65
2018-07-28T08:38:07.766Z,1004.66
2018-07-28T08:38:46.777Z,1004.65
2018-07-28T08:39:46.804Z,1004.59
2018-07-28T08:40:46.837Z,1004.59
2018-07-28T08:41:46.861Z,1004.58
2018-07-28T08:42:46.889Z,1004.60
2018-07-28T08:44:07.939Z,1004.55
2018-07-28T08:44:46.952Z,1004.54
2018-07-28T08:45:46.976Z,1004.58
2018-07-28T08:46:47.005Z,1004.65
2018-07-28T08:47:47.034Z,1004.62
2018-07-28T08:48:47.080Z,1004.70
2018-07-28T08:50:08.106Z,1004.65
2018-07-28T08:50:47.141Z,1004.68
2018-07-28T08:51:47.188Z,1004.67
2018-07-28T08:52:47.175Z,1004.65
2018-07-28T08:53:47.202Z,1004.62
2018-07-28T08:54:47.256Z,1004.60
2018-07-28T08:56:08.279Z,1004.63
2018-07-28T08:56:47.289Z,1004.63
2018-07-28T08:57:47.317Z,1004.61
2018-07-28T08:58:47.350Z,1004.59
2018-07-28T08:59:47.372Z,1004.61
2018-07-28T09:00:47.401Z,1004.56
2018-07-28T09:02:08.449Z,1004.51
2018-07-28T09:02:47.457Z,1004.42
2018-07-28T09:03:47.488Z,1004.40
2018-07-28T09:04:47.514Z,1004.36
2018-07-28T09:05:47.545Z,1004.34
2018-07-28T09:06:47.574Z,1004.29
2018-07-28T09:08:08.620Z,1004.24
2018-07-28T09:08:47.630Z,1004.26
2018-07-28T09:09:47.660Z,1004.26
2018-07-28T09:10:47.688Z,1004.26
2018-07-28T09:11:47.718Z,1004.30
2018-07-28T09:12:47.743Z,1004.34
2018-07-28T09:14:08.789Z,1004.32
2018-07-28T09:14:47.801Z,1004.33
2018-07-28T09:15:47.830Z,1004.35
2018-07-28T09:16:47.857Z,1004.36
2018-07-28T09:17:47.888Z,1004.35
2018-07-28T09:18:47.916Z,1004.33
2018-07-28T09:20:08.958Z,1004.30
2018-07-28T09:20:47.970Z,1004.30
2018-07-28T09:21:47.997Z,1004.19
2018-07-28T09:22:48.029Z,1004.18
2018-07-28T09:23:48.056Z,1004.19
2018-07-28T09:24:48.085Z,1004.15
2018-07-28T09:26:09.130Z,1004.14
2018-07-28T09:26:48.141Z,1004.15
2018-07-28T09:27:48.170Z,1004.17
2018-07-28T09:28:48.195Z,1004.15
2018-07-28T09:29:48.229Z,1004.15
2018-07-28T09:30:48.253Z,1004.18
2018-07-28T09:32:09.308Z,1004.12
2018-07-28T09:32:48.313Z,1004.18
2018-07-28T09:33:48.341Z,1004.18
2018-07-28T09:34:48.371Z,1004.19
2018-07-28T09:35:48.395Z,1004.22
2018-07-28T09:36:48.453Z,1004.17
2018-07-28T09:38:09.469Z,1004.17
2018-07-28T09:38:48.480Z,1004.17
2018-07-28T09:39:48.509Z,1004.15
2018-07-28T09:40:48.537Z,1004.17
2018-07-28T09:41:48.565Z,1004.12
2018-07-28T09:42:48.595Z,1004.13
2018-07-28T09:44:09.642Z,1004.08
2018-07-28T09:44:48.652Z,1004.06
2018-07-28T09:45:48.681Z,1004.09
2018-07-28T09:46:48.711Z,1004.09
2018-07-28T09:47:48.737Z,1004.14
2018-07-28T09:48:48.769Z,1004.11
2018-07-28T09:50:09.811Z,1004.08
2018-07-28T09:50:48.821Z,1004.10
2018-07-28T09:51:48.851Z,1004.11
2018-07-28T09:52:48.881Z,1004.10
2018-07-28T09:53:48.910Z,1004.13
2018-07-28T09:54:48.936Z,1004.09
2018-07-28T09:56:09.993Z,1004.10
2018-07-28T09:56:48.992Z,1004.14
2018-07-28T09:57:49.023Z,1004.18
2018-07-28T09:58:49.050Z,1004.20
2018-07-28T09:59:49.079Z,1004.19
2018-07-28T10:00:49.107Z,1004.10
2018-07-28T10:02:10.153Z,1004.08
2018-07-28T10:02:49.162Z,1004.05
2018-07-28T10:03:49.199Z,1003.86
2018-07-28T10:04:49.222Z,1003.86
2018-07-28T10:05:49.253Z,1003.94
2018-07-28T10:06:49.289Z,1003.92
2018-07-28T10:08:10.327Z,1003.88
2018-07-28T10:08:49.332Z,1003.90
2018-07-28T10:09:49.361Z,1003.96
2018-07-28T10:10:49.387Z,1003.93
2018-07-28T10:11:49.418Z,1003.86
2018-07-28T10:12:49.445Z,1003.85
2018-07-28T10:14:10.492Z,1003.88
2018-07-28T10:14:49.503Z,1003.95
2018-07-28T10:15:49.533Z,1003.84
2018-07-28T10:16:49.560Z,1003.80
2018-07-28T10:17:49.590Z,1003.86
2018-07-28T10:18:49.618Z,1003.84
2018-07-28T10:20:10.667Z,1003.88
2018-07-28T10:20:49.672Z,1003.81
2018-07-28T10:21:49.700Z,1003.86
2018-07-28T10:22:49.777Z,1003.83
2018-07-28T10:23:49.760Z,1003.82
2018-07-28T10:24:49.787Z,1003.90
2018-07-28T10:26:10.834Z,1003.97
2018-07-28T10:26:49.844Z,1004.03
2018-07-28T10:27:49.874Z,1004.13
2018-07-28T10:28:49.901Z,1004.15
2018-07-28T10:29:49.929Z,1004.15
2018-07-28T10:30:49.957Z,1004.24
2018-07-28T10:32:11.004Z,1004.23
2018-07-28T10:32:50.013Z,1004.27
2018-07-28T10:33:50.073Z,1004.23
2018-07-28T10:34:50.096Z,1004.28
2018-07-28T10:35:50.099Z,1004.26
2018-07-28T10:36:50.127Z,1004.24
2018-07-28T10:38:11.174Z,1004.23
2018-07-28T10:38:50.188Z,1004.16
2018-07-28T10:39:50.212Z,1004.18
2018-07-28T10:40:50.236Z,1004.16
2018-07-28T10:41:50.266Z,1004.16
2018-07-28T10:42:50.293Z,1004.14
2018-07-28T10:44:11.350Z,1004.17
2018-07-28T10:44:50.350Z,1004.26
2018-07-28T10:45:50.381Z,1004.14
2018-07-28T10:46:50.407Z,1004.10
2018-07-28T10:47:50.437Z,1004.10
2018-07-28T10:48:50.467Z,1004.09
2018-07-28T10:50:11.512Z,1004.11
2018-07-28T10:50:50.521Z,1004.09
2018-07-28T10:51:50.558Z,1004.11
2018-07-28T10:52:50.577Z,1004.12
2018-07-28T10:53:50.603Z,1004.09
2018-07-28T10:54:50.631Z,1004.12
2018-07-28T10:56:11.681Z,1004.09
2018-07-28T10:56:50.689Z,1004.08
2018-07-28T10:57:50.718Z,1004.06
2018-07-28T10:58:50.744Z,1004.04
2018-07-28T10:59:50.777Z,1004.01
2018-07-28T11:00:50.801Z,1004.03
2018-07-28T11:02:11.848Z,1004.00
2018-07-28T11:02:50.862Z,1004.04
2018-07-28T11:03:50.884Z,1004.02
2018-07-28T11:04:50.911Z,1004.05
2018-07-28T11:05:50.942Z,1004.01
2018-07-28T11:06:50.969Z,1004.01
2018-07-28T11:08:12.017Z,1003.98
2018-07-28T11:08:51.026Z,1003.99
2018-07-28T11:09:51.056Z,1003.93
2018-07-28T11:10:51.082Z,1003.90
2018-07-28T11:11:51.108Z,1003.85
2018-07-28T11:12:51.136Z,1003.85
2018-07-28T11:14:12.181Z,1003.84
2018-07-28T11:14:51.193Z,1003.82
2018-07-28T11:15:51.218Z,1003.83
2018-07-28T11:16:51.247Z,1003.84
2018-07-28T11:17:51.276Z,1003.81
2018-07-28T11:18:51.314Z,1003.80
2018-07-28T11:20:12.352Z,1003.74
2018-07-28T11:20:51.361Z,1003.76
2018-07-28T11:21:51.389Z,1003.78
2018-07-28T11:22:51.418Z,1003.70
2018-07-28T11:23:51.449Z,1003.71
2018-07-28T11:24:51.471Z,1003.72
2018-07-28T11:26:12.530Z,1003.75
2018-07-28T11:26:51.533Z,1003.71
2018-07-28T11:27:51.560Z,1003.70
2018-07-28T11:28:51.586Z,1003.73
2018-07-28T11:29:51.614Z,1003.69
2018-07-28T11:30:51.641Z,1003.72
2018-07-28T11:32:12.687Z,1003.65
2018-07-28T11:32:51.697Z,1003.62
2018-07-28T11:33:51.725Z,1003.65
2018-07-28T11:34:51.753Z,1003.63
2018-07-28T11:35:51.791Z,1003.63
2018-07-28T11:36:51.812Z,1003.59
2018-07-28T11:38:12.858Z,1003.60
2018-07-28T11:38:51.869Z,1003.56
2018-07-28T11:39:51.894Z,1003.52
2018-07-28T11:40:51.923Z,1003.53
2018-07-28T11:41:51.950Z,1003.49
2018-07-28T11:42:51.978Z,1003.49
2018-07-28T11:44:13.029Z,1003.42
2018-07-28T11:44:52.041Z,1003.39
2018-07-28T11:45:52.114Z,1003.39
2018-07-28T11:46:52.096Z,1003.37
2018-07-28T11:47:52.121Z,1003.30
2018-07-28T11:48:52.149Z,1003.23
2018-07-28T11:50:13.198Z,1003.20
2018-07-28T11:50:52.207Z,1003.14
2018-07-28T11:51:52.234Z,1003.08
2018-07-28T11:52:52.261Z,1003.10
2018-07-28T11:53:52.288Z,1003.10
2018-07-28T11:54:52.317Z,1003.06
2018-07-28T11:56:13.364Z,1003.01
2018-07-28T11:56:52.374Z,1003.00
2018-07-28T11:57:52.405Z,1002.98
2018-07-28T11:58:52.434Z,1002.95
2018-07-28T11:59:52.459Z,1002.99
2018-07-28T12:00:52.485Z,1002.99
2018-07-28T12:02:13.534Z,1003.03
2018-07-28T12:02:52.542Z,1003.04
2018-07-28T12:03:52.570Z,1003.10
2018-07-28T12:04:52.597Z,1003.15
2018-07-28T12:05:52.628Z,1003.35